Time;durP1;ratioP1;P1;durP2;ratioP2;P2;SDS_P1;SDS_P2;PMS_P1;PMS_P2;Temp;Humidity;BMP_temperature;BMP_pressure;BME280_temperature;BME280_humidity;BME280_pressure;Samples;Min_cycle;Max_cycle;Signal;HPM_P1;HPM_P2
2023/09/28 00:01:21;;;;;;;5.15;2.80;;;;;;;17.43;76.95;64801.91;5069481;28;20209;-54
2023/09/28 00:03:48;;;;;;;11.05;3.00;;;;;;;17.47;76.17;64806.84;5069492;28;20262;-54
2023/09/28 00:06:14;;;;;;;9.90;3.05;;;;;;;17.42;77.14;64803.91;5070742;28;20253;-54
2023/09/28 00:08:40;;;;;;;7.90;3.33;;;;;;;17.50;78.08;64807.63;5070629;28;20280;-53
2023/09/28 00:11:05;;;;;;;7.97;3.20;;;;;;;17.39;77.25;64797.50;5068985;28;20695;-54
2023/09/28 00:13:31;;;;;;;4.03;3.03;;;;;;;17.36;78.07;64794.19;5069112;28;20707;-54
2023/09/28 00:15:57;;;;;;;4.47;3.13;;;;;;;17.30;78.05;64787.56;5070189;28;20223;-54
2023/09/28 00:18:25;;;;;;;12.90;3.65;;;;;;;17.15;78.96;64773.59;5069974;28;20215;-54
2023/09/28 00:20:51;;;;;;;7.55;2.83;;;;;;;17.14;79.50;64769.94;5069591;28;20192;-53
2023/09/28 00:23:17;;;;;;;4.75;2.83;;;;;;;17.19;79.91;64778.53;5070506;28;20690;-55
2023/09/28 00:25:44;;;;;;;7.18;3.55;;;;;;;17.24;79.68;64780.97;5070587;28;20196;-54
2023/09/28 00:28:10;;;;;;;6.10;3.35;;;;;;;17.25;80.79;64782.06;5069018;28;20201;-54
2023/09/28 00:30:36;;;;;;;7.38;3.40;;;;;;;17.29;80.27;64786.47;5070238;28;20204;-53
2023/09/28 00:33:02;;;;;;;10.80;3.10;;;;;;;17.19;79.73;64775.47;5070248;28;20231;-55
2023/09/28 00:35:28;;;;;;;9.05;3.55;;;;;;;17.18;80.45;64776.91;5070481;28;20572;-54
2023/09/28 00:37:53;;;;;;;6.72;3.70;;;;;;;17.27;79.79;64786.81;5070063;28;20236;-54
2023/09/28 00:40:21;;;;;;;6.70;3.50;;;;;;;17.21;80.64;64777.66;5068899;28;20208;-54
2023/09/28 00:42:48;;;;;;;6.45;3.28;;;;;;;17.26;81.06;64783.16;5070064;28;20212;-53
2023/09/28 00:45:14;;;;;;;5.32;3.50;;;;;;;17.22;82.15;64781.31;5070457;28;20205;-54
2023/09/28 00:47:40;;;;;;;10.30;3.10;;;;;;;17.27;81.76;64787.34;5069663;28;20209;-53
2023/09/28 00:50:10;;;;;;;6.75;3.28;;;;;;;17.26;83.24;64786.25;5070387;28;20298;-54
2023/09/28 00:52:40;;;;;;;4.25;2.92;;;;;;;17.34;83.43;64794.53;5069980;28;20216;-54
2023/09/28 00:55:06;;;;;;;5.95;3.05;;;;;;;17.38;82.50;64796.38;5070329;28;20682;-57
2023/09/28 00:57:34;;;;;;;9.30;3.80;;;;;;;17.45;80.96;64806.66;5069917;28;20705;-55
2023/09/28 01:00:18;;;;;;;9.35;3.50;;;;;;;17.44;81.03;64800.44;5069890;28;20241;-57
2023/09/28 01:02:51;;;;;;;4.55;2.90;;;;;;;17.48;81.04;64807.97;5069961;28;20208;-56
2023/09/28 01:05:30;;;;;;;8.73;3.70;;;;;;;17.52;80.66;64812.38;5070115;28;20296;-53
2023/09/28 01:08:08;;;;;;;4.85;3.15;;;;;;;17.52;81.44;64811.84;5069649;28;20825;-54
2023/09/28 01:10:36;;;;;;;4.63;3.58;;;;;;;17.44;82.46;64801.00;5069903;28;20239;-53
2023/09/28 01:13:10;;;;;;;5.75;4.32;;;;;;;17.37;83.68;64795.28;5069905;28;20242;-54
2023/09/28 01:15:37;;;;;;;14.18;5.47;;;;;;;17.37;82.97;64795.28;5068805;28;20215;-53
2023/09/28 01:18:03;;;;;;;12.40;5.72;;;;;;;17.18;84.96;64772.34;5075802;22;20220;-54
2023/09/28 01:20:36;;;;;;;9.90;3.70;;;;;;;17.08;85.13;64763.88;5068364;28;20209;-54
2023/09/28 01:23:03;;;;;;;8.48;3.50;;;;;;;17.03;85.54;64757.84;5069559;28;20682;-54
2023/09/28 01:25:28;;;;;;;7.95;3.38;;;;;;;17.13;86.49;64771.94;5069523;28;20193;-53
2023/09/28 01:27:54;;;;;;;6.85;2.90;;;;;;;17.18;86.88;64774.91;5069876;28;20231;-55
2023/09/28 01:30:20;;;;;;;9.13;3.05;;;;;;;17.18;86.25;64774.91;5069560;28;20588;-54
2023/09/28 01:32:46;;;;;;;5.93;3.85;;;;;;;17.15;86.27;64768.50;5069754;28;20232;-54
2023/09/28 01:35:12;;;;;;;5.25;3.47;;;;;;;17.21;86.39;64777.66;5069556;28;20205;-54
2023/09/28 01:37:52;;;;;;;5.18;3.42;;;;;;;17.29;87.00;64789.56;5069787;28;20213;-54
2023/09/28 01:40:18;;;;;;;7.55;3.50;;;;;;;17.25;87.07;64785.16;5069675;28;20306;-53
2023/09/28 01:42:44;;;;;;;7.25;3.75;;;;;;;17.07;88.11;64762.78;5069655;28;20699;-54
2023/09/28 01:45:09;;;;;;;7.95;3.58;;;;;;;16.93;88.07;64746.81;5068584;28;20208;-53
2023/09/28 01:47:35;;;;;;;7.78;3.83;;;;;;;17.01;87.37;64755.63;5069415;28;20223;-53
2023/09/28 01:50:03;;;;;;;6.20;3.30;;;;;;;17.05;87.23;64760.56;5067968;28;20197;-53
2023/09/28 01:52:28;;;;;;;7.05;3.83;;;;;;;17.12;87.87;64770.28;5068251;28;20220;-54
2023/09/28 01:54:54;;;;;;;8.98;3.70;;;;;;;17.06;87.48;64759.13;5069620;28;20181;-53
2023/09/28 01:57:19;;;;;;;5.95;4.03;;;;;;;16.98;86.37;64755.41;5069599;28;20227;-53
2023/09/28 01:59:45;;;;;;;7.25;3.75;;;;;;;16.90;87.34;64746.06;5069952;28;20193;-54
2023/09/28 02:02:10;;;;;;;4.10;3.38;;;;;;;17.00;86.79;64754.53;5072991;28;20689;-54
2023/09/28 02:04:39;;;;;;;5.00;3.40;;;;;;;16.86;87.59;64739.66;5071374;28;20200;-54
2023/09/28 02:07:04;;;;;;;7.43;3.42;;;;;;;16.79;87.85;64729.94;5072435;28;20288;-54
2023/09/28 02:09:31;;;;;;;8.10;3.90;;;;;;;16.74;88.22;64729.00;5072681;28;20201;-55
2023/09/28 02:11:58;;;;;;;9.48;3.30;;;;;;;16.73;89.14;64727.88;5072586;28;20217;-55
2023/09/28 02:14:23;;;;;;;5.53;3.95;;;;;;;16.78;90.58;64733.94;5072607;28;20188;-55
2023/09/28 02:16:52;;;;;;;5.50;3.28;;;;;;;16.87;91.21;64740.22;5072812;28;20654;-54
2023/09/28 02:19:18;;;;;;;10.68;3.63;;;;;;;16.95;92.11;64751.56;5072522;28;20266;-55
2023/09/28 02:21:44;;;;;;;7.38;3.75;;;;;;;16.92;91.84;64746.25;5072672;28;20687;-53
2023/09/28 02:24:10;;;;;;;9.93;3.42;;;;;;;16.91;91.82;64744.63;5072555;28;20187;-53
2023/09/28 02:26:36;;;;;;;8.18;3.97;;;;;;;16.96;91.13;64753.22;5072532;28;20244;-58
2023/09/28 02:29:02;;;;;;;8.15;4.55;;;;;;;16.98;91.21;64752.88;5070921;28;20290;-54
2023/09/28 02:31:28;;;;;;;7.00;3.45;;;;;;;17.06;91.20;64761.69;5072080;28;20706;-53
2023/09/28 02:33:54;;;;;;;8.55;4.03;;;;;;;17.03;91.61;64755.28;5072185;28;20198;-55
2023/09/28 02:36:20;;;;;;;6.15;3.75;;;;;;;16.79;94.06;64732.50;5072251;28;20217;-54
2023/09/28 02:38:46;;;;;;;8.18;3.13;;;;;;;16.88;92.55;64738.75;5070582;28;20201;-54
2023/09/28 02:41:19;;;;;;;6.53;3.47;;;;;;;16.74;93.23;64726.44;5069900;28;20220;-54
2023/09/28 02:43:45;;;;;;;6.10;3.50;;;;;;;16.55;95.85;64708.63;5070614;28;20227;-54
2023/09/28 02:46:11;;;;;;;7.78;4.13;;;;;;;16.59;94.91;64710.47;5069801;28;20212;-54
2023/09/28 02:48:37;;;;;;;6.82;3.97;;;;;;;16.54;94.98;64704.41;5071287;28;20262;-54
2023/09/28 02:51:12;;;;;;;6.47;4.03;;;;;;;16.55;95.18;64708.63;5071738;28;20212;-58
2023/09/28 02:53:38;;;;;;;11.65;3.97;;;;;;;16.69;94.81;64723.47;5070605;28;20211;-54
2023/09/28 02:56:03;;;;;;;13.38;4.18;;;;;;;16.62;94.84;64713.75;5071811;28;20208;-54
2023/09/28 02:58:29;;;;;;;13.63;4.75;;;;;;;16.44;93.81;64696.47;5070470;28;20220;-54
2023/09/28 03:00:56;;;;;;;6.15;3.80;;;;;;;16.17;97.10;64663.66;5071729;28;20266;-54
2023/09/28 03:03:23;;;;;;;6.53;4.05;;;;;;;16.10;96.36;64656.50;5070305;28;20211;-55
2023/09/28 03:05:56;;;;;;;8.48;4.07;;;;;;;16.04;96.75;64651.91;5070262;28;20212;-54
2023/09/28 03:08:22;;;;;;;8.40;4.40;;;;;;;16.14;96.27;64663.44;5071695;28;20201;-52
2023/09/28 03:10:48;;;;;;;11.02;4.50;;;;;;;16.13;96.23;64659.25;5071460;28;20216;-51
2023/09/28 03:13:13;;;;;;;10.90;4.22;;;;;;;16.24;97.11;64671.38;5071610;28;20205;-52
2023/09/28 03:15:41;;;;;;;9.82;3.95;;;;;;;16.32;96.65;64680.72;5071596;28;20755;-52
2023/09/28 03:18:09;;;;;;;9.07;4.35;;;;;;;16.31;97.63;64679.63;5071637;28;20350;-52
2023/09/28 03:20:35;;;;;;;13.30;4.30;;;;;;;16.12;98.77;64656.16;5071552;28;20591;-52
2023/09/28 03:23:00;;;;;;;8.63;3.83;;;;;;;16.07;94.70;64652.66;5071617;28;20267;-52
2023/09/28 03:25:26;;;;;;;10.27;4.00;;;;;;;16.03;92.42;64651.34;5070205;28;20675;-52
2023/09/28 03:27:53;;;;;;;7.38;3.88;;;;;;;16.10;92.03;64658.50;5069969;28;20597;-55
2023/09/28 03:30:22;;;;;;;13.00;3.72;;;;;;;16.31;95.96;64682.16;5071218;28;20234;-54
2023/09/28 03:32:48;;;;;;;11.25;4.38;;;;;;;16.35;95.79;64684.03;5071355;28;20208;-55
2023/09/28 03:35:16;;;;;;;16.35;5.50;;;;;;;16.12;96.12;64658.69;5071336;28;20573;-55
2023/09/28 03:37:42;;;;;;;10.65;3.80;;;;;;;15.95;97.15;64640.56;5069867;28;20220;-54
2023/09/28 03:40:10;;;;;;;12.32;4.50;;;;;;;15.85;98.66;64632.09;5071280;28;20702;-59
2023/09/28 03:42:43;;;;;;;7.32;4.28;;;;;;;15.95;98.66;64640.00;5070962;28;20213;-60
2023/09/28 03:45:11;;;;;;;10.52;5.30;;;;;;;16.09;97.24;64652.88;5071097;28;20199;-54
2023/09/28 03:47:40;;;;;;;14.32;5.30;;;;;;;16.14;96.33;64660.91;5071080;28;20248;-55
2023/09/28 03:50:11;;;;;;;8.05;3.75;;;;;;;16.04;95.30;64649.91;5071033;28;20208;-55
2023/09/28 03:52:38;;;;;;;14.73;9.10;;;;;;;16.08;94.08;64651.75;5071022;28;20301;-55
2023/09/28 03:55:24;;;;;;;11.98;5.13;;;;;;;15.99;96.53;64646.94;5071016;28;20200;-54
2023/09/28 03:57:50;;;;;;;8.80;4.95;;;;;;;16.01;97.57;64646.59;5070308;28;20232;-55
2023/09/28 04:00:18;;;;;;;10.52;4.43;;;;;;;16.00;97.44;64645.50;5070814;28;20275;-54
2023/09/28 04:02:49;;;;;;;11.93;5.22;;;;;;;16.21;95.78;64670.59;5070756;28;20212;-55
2023/09/28 04:05:16;;;;;;;8.15;4.43;;;;;;;16.31;94.00;64676.53;5070581;28;20638;-55
2023/09/28 04:07:42;;;;;;;8.55;4.22;;;;;;;16.37;95.08;64686.22;5071085;28;20201;-54
2023/09/28 04:10:09;;;;;;;9.35;4.47;;;;;;;16.39;95.73;64688.44;5070985;28;20548;-53
2023/09/28 04:12:35;;;;;;;9.77;4.13;;;;;;;16.45;95.11;64695.03;5070951;28;20221;-54
2023/09/28 04:15:01;;;;;;;9.13;4.68;;;;;;;16.51;94.31;64704.22;5070620;28;20201;-55
2023/09/28 04:17:26;;;;;;;7.80;3.92;;;;;;;16.46;94.93;64698.13;5070840;28;20306;-55
2023/09/28 04:19:52;;;;;;;9.18;4.50;;;;;;;16.52;94.09;64702.75;5070609;28;20670;-62
2023/09/28 04:22:18;;;;;;;5.97;3.90;;;;;;;16.57;93.24;64708.28;5068726;28;20609;-55
2023/09/28 04:24:43;;;;;;;7.85;3.90;;;;;;;16.57;92.65;64708.28;5070704;28;20223;-54
2023/09/28 04:27:09;;;;;;;8.75;4.82;;;;;;;16.62;93.64;64710.69;5070259;28;20675;-55
2023/09/28 04:29:35;;;;;;;7.28;4.70;;;;;;;16.64;93.17;64715.97;5070539;28;20189;-53
2023/09/28 04:32:01;;;;;;;13.55;5.80;;;;;;;16.63;91.83;64717.41;5070599;28;20217;-54
2023/09/28 04:34:29;;;;;;;9.98;4.75;;;;;;;16.66;89.68;64715.09;5069065;28;20246;-54
2023/09/28 04:36:54;;;;;;;12.18;5.35;;;;;;;16.74;88.68;64724.44;5070445;28;20314;-53
2023/09/28 04:39:23;;;;;;;10.32;4.65;;;;;;;16.81;89.34;64733.59;5070246;28;20699;-54
2023/09/28 04:41:49;;;;;;;8.18;4.82;;;;;;;16.73;89.63;64725.34;5070242;28;20231;-56
2023/09/28 04:44:15;;;;;;;10.95;4.85;;;;;;;16.71;87.08;64725.69;5070280;28;20193;-53
2023/09/28 04:46:41;;;;;;;14.50;5.32;;;;;;;16.57;92.64;64708.28;5070045;28;20244;-58
2023/09/28 04:49:07;;;;;;;15.60;6.07;;;;;;;16.62;92.48;64713.75;5070180;28;20334;-56
2023/09/28 04:51:33;;;;;;;14.52;5.15;;;;;;;16.70;92.80;64725.13;5070213;28;20224;-55
2023/09/28 04:54:02;;;;;;;18.25;5.10;;;;;;;16.67;90.85;64721.81;5070034;28;20209;-54
2023/09/28 04:56:28;;;;;;;13.75;5.43;;;;;;;16.68;92.77;64722.38;5070000;28;20244;-54
2023/09/28 04:58:55;;;;;;;15.00;6.03;;;;;;;16.71;95.35;64725.69;5070060;28;20547;-54
2023/09/28 05:01:21;;;;;;;9.93;5.05;;;;;;;16.74;95.64;64727.00;5070167;28;20221;-55
2023/09/28 05:03:46;;;;;;;12.63;5.50;;;;;;;17.17;94.36;64775.81;5069844;28;20576;-54
2023/09/28 05:06:12;;;;;;;13.02;5.95;;;;;;;17.18;93.83;64774.34;5070045;28;20254;-54
2023/09/28 05:08:37;;;;;;;20.95;5.90;;;;;;;17.17;93.96;64773.25;5068693;28;20250;-54
2023/09/28 05:11:03;;;;;;;11.15;5.72;;;;;;;17.33;95.80;64791.41;5069922;28;20223;-55
2023/09/28 05:13:31;;;;;;;14.73;5.50;;;;;;;17.29;93.95;64786.47;5069579;28;20205;-54
2023/09/28 05:15:59;;;;;;;13.02;5.85;;;;;;;17.24;94.12;64778.97;5066870;28;20257;-54
2023/09/28 05:18:25;;;;;;;18.98;6.85;;;;;;;17.35;94.44;64795.63;5067677;28;20235;-55
2023/09/28 05:20:50;;;;;;;25.08;8.45;;;;;;;17.84;90.63;64849.66;5069851;28;20226;-54
2023/09/28 05:23:17;;;;;;;14.68;7.28;;;;;;;17.56;91.70;64813.69;5069677;28;20211;-55
2023/09/28 05:25:43;;;;;;;19.05;8.48;;;;;;;17.63;91.17;64823.97;5071113;28;20240;-53
2023/09/28 05:28:09;;;;;;;20.73;6.45;;;;;;;17.63;89.76;64823.97;5070026;28;20297;-52
2023/09/28 05:30:35;;;;;;;14.40;5.35;;;;;;;17.55;87.68;64815.16;5069878;28;20231;-53
2023/09/28 05:33:01;;;;;;;7.15;4.78;;;;;;;17.38;87.67;64796.94;5051763;28;20324;-53
2023/09/28 05:35:26;;;;;;;14.50;5.63;;;;;;;17.30;87.93;64788.13;5071434;28;20177;-52
2023/09/28 05:37:52;;;;;;;8.60;4.63;;;;;;;17.31;87.36;64786.66;5073116;28;20209;-53
2023/09/28 05:40:18;;;;;;;12.68;4.85;;;;;;;17.32;88.37;64790.31;5073380;28;20675;-53
2023/09/28 05:42:44;;;;;;;12.73;5.22;;;;;;;17.39;88.99;64797.50;5073486;28;20258;-51
2023/09/28 05:45:10;;;;;;;16.33;6.15;;;;;;;17.49;89.22;64808.53;5073070;28;20204;-52
2023/09/28 05:47:36;;;;;;;8.48;4.97;;;;;;;17.57;89.33;64817.34;5073253;28;20251;-52
2023/09/28 05:50:04;;;;;;;20.15;5.18;;;;;;;17.69;87.99;64830.03;5073186;28;20203;-52
2023/09/28 05:52:30;;;;;;;8.48;4.50;;;;;;;17.81;86.48;64843.81;5073107;28;20305;-52
2023/09/28 05:54:55;;;;;;;14.43;4.13;;;;;;;17.75;86.43;64839.19;5072999;28;20628;-52
2023/09/28 05:57:22;;;;;;;13.40;4.25;;;;;;;17.80;86.45;64842.13;5072692;28;20311;-51
2023/09/28 05:59:51;;;;;;;16.58;4.43;;;;;;;17.80;85.25;64842.69;5072892;28;20781;-53
2023/09/28 06:02:19;;;;;;;8.75;4.28;;;;;;;17.81;85.46;64843.81;5072915;28;20299;-51
2023/09/28 06:04:44;;;;;;;9.68;4.75;;;;;;;17.76;82.74;64840.84;5072516;28;20651;-52
2023/09/28 06:07:10;;;;;;;10.52;4.13;;;;;;;17.78;83.14;64843.03;5072469;28;20342;-52
2023/09/28 06:09:39;;;;;;;5.35;4.10;;;;;;;17.82;81.20;64842.34;5072801;28;20579;-52
2023/09/28 06:12:05;;;;;;;8.73;3.88;;;;;;;17.62;78.89;64822.84;5072763;28;20220;-52
2023/09/28 06:14:32;;;;;;;10.35;4.10;;;;;;;17.72;77.02;64833.88;5072668;28;20209;-51
2023/09/28 06:16:57;;;;;;;5.70;3.83;;;;;;;17.65;77.34;64828.72;5072383;28;20308;-52
2023/09/28 06:19:23;;;;;;;10.15;3.80;;;;;;;17.67;77.19;64825.28;5072428;28;20214;-56
2023/09/28 06:21:48;;;;;;;9.50;3.45;;;;;;;17.64;77.16;64827.59;5072184;28;20602;-56
2023/09/28 06:24:14;;;;;;;9.13;3.65;;;;;;;17.89;78.50;64850.06;5070956;28;20283;-52
2023/09/28 06:26:40;;;;;;;9.52;3.85;;;;;;;18.01;78.44;64868.41;5072651;28;20216;-53
2023/09/28 06:29:06;;;;;;;11.23;4.22;;;;;;;18.11;77.37;64876.88;5072165;28;20214;-52
2023/09/28 06:31:31;;;;;;;7.43;3.47;;;;;;;18.19;75.61;64885.69;5054294;28;20212;-54
2023/09/28 06:33:57;;;;;;;10.20;3.70;;;;;;;18.30;76.30;64895.28;5072232;28;20181;-52
2023/09/28 06:36:27;;;;;;;12.02;4.32;;;;;;;18.07;74.08;64872.47;5072029;28;20231;-52
2023/09/28 06:38:54;;;;;;;11.02;3.97;;;;;;;18.22;75.54;64888.47;5072231;28;20204;-52
2023/09/28 06:41:19;;;;;;;8.48;4.22;;;;;;;18.33;75.67;64900.59;5071981;28;20208;-52
2023/09/28 06:43:44;;;;;;;5.45;3.85;;;;;;;18.34;73.86;64902.22;5072190;28;20228;-51
2023/09/28 06:46:10;;;;;;;7.30;3.65;;;;;;;18.38;74.82;64906.66;5071578;28;20197;-52
2023/09/28 06:48:37;;;;;;;14.00;3.80;;;;;;;18.48;73.63;64916.59;5071990;28;20239;-52
2023/09/28 06:51:04;;;;;;;7.72;3.70;;;;;;;18.67;72.57;64940.09;5072086;28;20212;-52
2023/09/28 06:53:31;;;;;;;10.38;5.05;;;;;;;18.54;71.55;64920.66;5078022;22;20313;-53
2023/09/28 06:55:59;;;;;;;5.60;4.18;;;;;;;18.65;71.76;64935.34;5071725;28;20228;-52
2023/09/28 06:58:25;;;;;;;13.93;4.47;;;;;;;18.75;72.63;64946.94;5071641;28;20266;-52
2023/09/28 07:00:52;;;;;;;10.50;4.90;;;;;;;18.83;71.93;64953.22;5072175;28;20193;-52
2023/09/28 07:03:18;;;;;;;11.02;4.95;;;;;;;18.80;70.89;64949.91;5071608;28;20204;-51
2023/09/28 07:05:44;;;;;;;13.93;4.05;;;;;;;18.57;70.71;64923.97;5070317;28;20246;-51
2023/09/28 07:08:10;;;;;;;11.77;4.38;;;;;;;18.64;71.61;64934.25;5071459;28;20236;-52
2023/09/28 07:10:36;;;;;;;13.38;4.13;;;;;;;18.81;71.02;64950.44;5071547;28;20207;-52
2023/09/28 07:13:05;;;;;;;13.00;3.58;;;;;;;18.80;72.77;64951.91;5071571;28;20288;-57
2023/09/28 07:15:32;;;;;;;16.27;5.25;;;;;;;19.04;71.85;64978.38;5070107;28;20231;-51
2023/09/28 07:17:58;;;;;;;9.93;3.83;;;;;;;19.16;72.40;64991.63;5071317;28;20221;-51
2023/09/28 07:20:26;;;;;;;6.25;3.33;;;;;;;19.33;71.41;65010.44;5080752;22;20224;-53
2023/09/28 07:22:52;;;;;;;10.68;3.38;;;;;;;19.24;70.69;65000.47;5071530;28;20205;-52
2023/09/28 07:25:19;;;;;;;7.00;3.17;;;;;;;19.26;71.44;65000.13;5071370;28;20209;-54
2023/09/28 07:27:45;;;;;;;10.52;3.78;;;;;;;19.31;71.29;65010.72;5071466;28;20209;-54
2023/09/28 07:30:11;;;;;;;9.70;3.70;;;;;;;19.46;71.80;65022.22;5071350;28;20200;-55
2023/09/28 07:32:38;;;;;;;8.63;3.88;;;;;;;19.46;68.75;65022.22;5069871;28;20209;-54
2023/09/28 07:35:04;;;;;;;7.20;3.72;;;;;;;19.48;69.67;65023.88;5071547;28;20205;-54
2023/09/28 07:37:33;;;;;;;8.82;3.50;;;;;;;19.69;68.46;65050.19;5071228;28;20212;-54
2023/09/28 07:39:58;;;;;;;7.53;3.72;;;;;;;19.84;69.56;65066.16;5071366;28;20740;-54
2023/09/28 07:42:24;;;;;;;11.48;3.30;;;;;;;19.99;68.59;65078.19;5071100;28;20803;-53
2023/09/28 07:44:54;;;;;;;7.80;4.07;;;;;;;20.08;65.87;65093.25;5053123;28;20689;-52
2023/09/28 07:47:19;;;;;;;8.93;2.97;;;;;;;20.16;65.58;65101.53;5071224;28;20293;-52
2023/09/28 07:49:47;;;;;;;6.82;3.38;;;;;;;20.01;65.92;65082.41;5071204;28;20631;-55
2023/09/28 07:52:12;;;;;;;7.97;3.40;;;;;;;20.13;63.20;65095.09;5069791;28;20305;-52
2023/09/28 07:54:38;;;;;;;9.90;3.75;;;;;;;20.06;62.28;65087.91;5070775;28;20258;-53
2023/09/28 07:57:04;;;;;;;8.23;3.70;;;;;;;20.04;62.46;65088.81;5070279;28;20243;-52
2023/09/28 07:59:31;;;;;;;6.05;3.30;;;;;;;20.08;65.26;65093.25;5070937;28;20263;-52
2023/09/28 08:01:58;;;;;;;9.48;3.45;;;;;;;20.12;65.28;65097.09;5070885;28;20224;-52
2023/09/28 08:04:23;;;;;;;13.55;4.53;;;;;;;20.26;63.84;65110.03;5071160;28;20208;-52
2023/09/28 08:06:49;;;;;;;12.00;4.10;;;;;;;20.26;64.98;65110.03;5070907;28;20716;-52
2023/09/28 08:09:14;;;;;;;7.32;2.90;;;;;;;20.39;64.39;65123.84;5070995;28;20683;-53
2023/09/28 08:11:41;;;;;;;10.30;3.53;;;;;;;20.52;64.15;65138.22;5071017;28;20230;-52
2023/09/28 08:14:09;;;;;;;7.07;3.13;;;;;;;20.78;61.87;65166.94;5070640;28;20204;-52
2023/09/28 08:16:35;;;;;;;11.82;3.67;;;;;;;20.80;62.33;65171.72;5070573;28;20212;-52
2023/09/28 08:19:02;;;;;;;7.88;3.47;;;;;;;21.05;59.63;65194.25;5071054;28;20261;-52
2023/09/28 08:21:28;;;;;;;5.97;3.03;;;;;;;21.06;61.34;65197.94;5070559;28;20204;-52
2023/09/28 08:23:55;;;;;;;8.98;2.92;;;;;;;20.95;61.41;65188.31;5070608;28;20278;-52
2023/09/28 08:26:20;;;;;;;10.60;3.65;;;;;;;20.85;60.99;65174.69;5070408;28;20535;-53
2023/09/28 08:28:46;;;;;;;6.72;3.20;;;;;;;20.73;60.70;65161.41;5070748;28;20213;-56
2023/09/28 08:31:12;;;;;;;8.38;3.40;;;;;;;20.65;60.43;65153.13;5070662;28;20226;-52
2023/09/28 08:33:38;;;;;;;8.05;3.08;;;;;;;20.93;60.93;65183.53;5070467;28;20281;-52
2023/09/28 08:36:08;;;;;;;7.18;3.22;;;;;;;21.10;60.62;65201.78;5070187;28;20196;-52
2023/09/28 08:38:33;;;;;;;9.82;3.22;;;;;;;21.47;60.47;65245.81;5069157;28;20216;-52
2023/09/28 08:41:08;;;;;;;6.50;3.38;;;;;;;21.73;60.22;65272.00;5070149;28;20200;-55
2023/09/28 08:43:41;;;;;;;9.55;3.15;;;;;;;21.84;60.86;65281.09;5070589;28;20212;-51
2023/09/28 08:46:12;;;;;;;20.52;3.45;;;;;;;21.73;59.41;65271.47;5070445;28;20279;-53
2023/09/28 08:48:44;;;;;;;8.07;3.28;;;;;;;21.68;60.31;65269.06;5070437;28;20243;-52
2023/09/28 08:51:11;;;;;;;9.23;3.33;;;;;;;21.90;59.76;65289.75;5070321;28;20295;-52
2023/09/28 08:53:41;;;;;;;6.78;3.28;;;;;;;22.42;61.26;65347.84;5069903;28;20545;-53
2023/09/28 08:56:07;;;;;;;11.77;3.40;;;;;;;22.87;60.27;65394.00;5069869;28;20200;-51
2023/09/28 08:58:37;;;;;;;6.15;3.55;;;;;;;23.35;57.17;65452.91;5068618;28;20204;-51
2023/09/28 09:01:04;;;;;;;14.00;4.85;;;;;;;23.76;55.16;65495.22;5069843;28;20207;-55
2023/09/28 09:03:33;;;;;;;8.75;3.50;;;;;;;23.73;51.92;65488.78;5070278;28;20735;-53
2023/09/28 09:05:59;;;;;;;9.95;3.10;;;;;;;23.72;51.84;65492.81;5069932;28;20291;-52
2023/09/28 09:08:29;;;;;;;10.15;3.22;;;;;;;23.86;53.93;65505.75;5070184;28;20217;-51
2023/09/28 09:10:55;;;;;;;7.38;2.70;;;;;;;24.04;52.51;65526.28;5069627;28;20205;-51
2023/09/28 09:13:22;;;;;;;8.75;2.80;;;;;;;24.42;54.62;65565.28;5070049;28;20213;-53
2023/09/28 09:15:49;;;;;;;7.97;2.80;;;;;;;24.77;52.95;65606.69;5073691;28;20170;-52
2023/09/28 09:18:24;;;;;;;10.88;3.55;;;;;;;24.84;50.82;65613.91;5073311;28;20263;-52
2023/09/28 09:20:50;;;;;;;9.25;2.95;;;;;;;25.25;49.57;65659.41;5071758;28;20184;-55
2023/09/28 09:23:17;;;;;;;8.15;3.72;;;;;;;25.28;49.63;65659.59;5073399;28;20236;-57
2023/09/28 09:25:53;;;;;;;11.55;3.63;;;;;;;25.61;49.16;65698.84;5073371;28;20197;-54
2023/09/28 09:28:30;;;;;;;13.05;3.40;;;;;;;25.71;47.08;65707.34;5073050;28;20213;-54
2023/09/28 09:30:56;;;;;;;8.60;3.17;;;;;;;25.60;46.54;65695.13;5072022;28;20199;-53
2023/09/28 09:33:25;;;;;;;10.25;3.17;;;;;;;25.92;47.61;65733.25;5073627;28;20231;-54
2023/09/28 09:35:51;;;;;;;4.53;2.95;;;;;;;26.01;46.34;65742.69;5072428;28;20201;-54
2023/09/28 09:38:36;;;;;;;8.27;3.40;;;;;;;26.02;44.96;65741.22;5072629;28;20698;-57
2023/09/28 09:41:05;;;;;;;4.07;2.72;;;;;;;25.94;44.66;65735.47;5072817;28;20223;-54
2023/09/28 09:43:35;;;;;;;7.60;2.83;;;;;;;25.54;45.21;65691.06;5072945;28;20197;-53
2023/09/28 09:46:09;;;;;;;7.05;3.17;;;;;;;26.20;45.07;65763.81;5072878;28;20236;-51
2023/09/28 09:48:38;;;;;;;6.85;2.45;;;;;;;26.54;45.22;65796.41;5072046;28;20234;-52
2023/09/28 09:51:08;;;;;;;8.80;3.42;;;;;;;26.90;44.46;65841.06;5072864;28;20287;-52
2023/09/28 09:53:35;;;;;;;10.30;3.30;;;;;;;27.20;43.24;65871.81;5073345;28;20222;-52
2023/09/28 09:56:04;;;;;;;9.98;3.50;;;;;;;26.46;43.23;65790.66;5072960;28;20200;-55
2023/09/28 09:58:37;;;;;;;6.00;2.92;;;;;;;25.65;44.41;65700.69;5073033;28;20185;-52
2023/09/28 10:01:07;;;;;;;7.70;2.90;;;;;;;26.25;44.35;65767.34;5071691;28;20200;-51
2023/09/28 10:03:35;;;;;;;7.18;2.92;;;;;;;26.96;44.11;65845.69;5072969;28;20250;-51
2023/09/28 10:06:01;;;;;;;7.40;3.17;;;;;;;26.84;44.24;65832.38;5072603;28;20219;-57
2023/09/28 10:08:31;;;;;;;8.95;2.97;;;;;;;26.85;44.41;65833.47;5072940;28;20204;-54
2023/09/28 10:10:58;;;;;;;6.10;3.22;;;;;;;27.13;43.57;65861.47;5071447;28;20196;-53
2023/09/28 10:13:31;;;;;;;8.57;3.35;;;;;;;27.35;44.05;65885.94;5072692;28;20211;-54
2023/09/28 10:16:02;;;;;;;8.60;2.85;;;;;;;26.51;44.80;65796.22;5072536;28;20266;-52
2023/09/28 10:18:29;;;;;;;10.82;2.78;;;;;;;26.33;45.33;65778.25;5054618;28;20213;-54
2023/09/28 10:20:58;;;;;;;10.25;3.50;;;;;;;26.09;45.90;65751.59;5071599;28;20239;-58
2023/09/28 10:23:26;;;;;;;10.57;3.40;;;;;;;26.38;46.44;65781.78;5072607;28;20670;-52
2023/09/28 10:26:06;;;;;;;6.97;3.28;;;;;;;25.66;47.06;65704.38;5072356;28;20201;-59
2023/09/28 10:28:33;;;;;;;6.20;2.88;;;;;;;25.48;47.42;65684.97;5055531;28;20208;-53
2023/09/28 10:31:18;;;;;;;10.13;3.70;;;;;;;25.00;49.21;65629.09;5072455;28;20209;-51
2023/09/28 10:34:05;;;;;;;6.90;3.55;;;;;;;24.58;50.52;65585.06;5072185;28;20295;-54
2023/09/28 10:36:32;;;;;;;8.32;3.50;;;;;;;24.77;52.44;65606.16;5072246;28;20244;-55
2023/09/28 10:39:13;;;;;;;10.20;3.42;;;;;;;24.59;51.43;65583.56;5071347;28;20288;-53
2023/09/28 10:41:46;;;;;;;10.77;2.83;;;;;;;24.69;51.81;65597.81;5053058;28;20212;-52
2023/09/28 10:44:21;;;;;;;8.32;2.88;;;;;;;24.53;51.52;65580.06;5071025;28;20208;-51
2023/09/28 10:46:50;;;;;;;8.73;3.00;;;;;;;24.45;52.01;65568.63;5071510;28;20214;-53
2023/09/28 10:49:26;;;;;;;4.68;2.90;;;;;;;24.92;51.78;65623.34;5071821;28;20219;-52
2023/09/28 10:51:52;;;;;;;6.43;3.22;;;;;;;25.55;52.15;65692.19;5072060;28;20239;-52
2023/09/28 10:54:19;;;;;;;5.75;2.80;;;;;;;25.38;50.68;65673.28;5072482;28;20282;-51
2023/09/28 10:56:48;;;;;;;5.97;3.28;;;;;;;25.07;49.36;65636.31;5071688;28;20217;-53
2023/09/28 10:59:19;;;;;;;4.93;2.88;;;;;;;24.77;49.97;65603.56;5071857;28;20288;-56
2023/09/28 11:01:46;;;;;;;10.15;3.53;;;;;;;24.52;50.41;65578.97;5070337;28;20327;-54
2023/09/28 11:04:13;;;;;;;5.80;3.05;;;;;;;24.57;51.40;65587.06;5070417;28;20217;-52
2023/09/28 11:06:43;;;;;;;5.93;2.42;;;;;;;24.46;50.43;65572.28;5071952;28;20201;-52
2023/09/28 11:09:12;;;;;;;8.70;3.20;;;;;;;24.71;51.22;65599.47;5071890;28;20297;-53
2023/09/28 11:11:38;;;;;;;5.57;3.10;;;;;;;25.50;51.12;65684.59;5071498;28;20216;-51
2023/09/28 11:14:06;;;;;;;8.43;3.88;;;;;;;25.71;49.90;65710.47;5071698;28;20208;-51
2023/09/28 11:16:34;;;;;;;13.48;4.10;;;;;;;25.66;48.02;65704.38;5070177;28;20205;-52
2023/09/28 11:19:00;;;;;;;5.57;2.67;;;;;;;25.89;47.66;65726.78;5071765;28;20220;-58
2023/09/28 11:21:28;;;;;;;7.00;3.00;;;;;;;26.19;47.55;65763.25;5071606;28;20288;-53
2023/09/28 11:23:54;;;;;;;9.05;3.28;;;;;;;25.59;47.22;65694.03;5071758;28;20209;-51
2023/09/28 11:26:20;;;;;;;8.82;3.20;;;;;;;25.59;48.31;65694.03;5071669;28;20212;-52
2023/09/28 11:28:48;;;;;;;9.35;2.78;;;;;;;25.40;48.15;65675.50;5071336;28;20211;-55
2023/09/28 11:31:15;;;;;;;6.45;3.65;;;;;;;25.16;48.38;65646.28;5070910;28;20216;-52
2023/09/28 11:33:44;;;;;;;9.55;3.13;;;;;;;24.90;48.98;65621.13;5051478;28;20198;-51